Time;durP1;ratioP1;P1;durP2;ratioP2;P2;SDS_P1;SDS_P2;PMS_P1;PMS_P2;Temp;Humidity;BMP_temperature;BMP_pressure;BME280_temperature;BME280_humidity;BME280_pressure;Samples;Min_cycle;Max_cycle;Signal;HPM_P1;HPM_P2
2022/01/16 00:04:43;;;;;;;;;;;3.10;99.90;;;;;;5054189;28;19971;-76
2022/01/16 00:07:09;;;;;;;;;;;3.10;99.90;;;;;;5054213;28;19968;-79
2022/01/16 00:09:35;;;;;;;;;;;3.10;99.90;;;;;;5054446;28;20401;-76
2022/01/16 00:12:04;;;;;;;;;;;3.10;99.90;;;;;;5052720;28;20296;-80
2022/01/16 00:14:30;;;;;;;;;;;4.40;99.90;;;;;;5054083;28;20085;-76
2022/01/16 00:16:56;;;;;;;;;;;3.60;99.90;;;;;;5053803;28;19921;-79
2022/01/16 00:19:21;;;;;;;;;;;3.00;99.90;;;;;;5054038;28;19974;-79
2022/01/16 00:21:47;;;;;;;;;;;3.30;99.90;;;;;;5068975;28;19924;-80
2022/01/16 00:24:12;;;;;;;;;;;2.90;99.90;;;;;;5052772;28;20055;-79
2022/01/16 00:26:39;;;;;;;;;;;2.90;99.90;;;;;;5052729;28;19927;-76
2022/01/16 00:29:07;;;;;;;;;;;2.90;99.90;;;;;;5054151;28;19927;-74
2022/01/16 00:31:33;;;;;;;;;;;3.80;99.90;;;;;;5053791;28;19924;-79
2022/01/16 00:33:59;;;;;;;;;;;2.80;99.90;;;;;;5052832;28;19920;-79
2022/01/16 00:36:24;;;;;;;;;;;4.60;99.90;;;;;;5053813;28;19921;-76
2022/01/16 00:38:51;;;;;;;;;;;2.70;99.90;;;;;;5053853;28;19970;-76
2022/01/16 00:41:18;;;;;;;;;;;2.70;99.90;;;;;;5052596;28;19921;-75
2022/01/16 00:43:44;;;;;;;;;;;2.60;99.90;;;;;;5053919;28;20268;-80
2022/01/16 00:46:09;;;;;;;;;;;2.60;99.90;;;;;;5052798;28;19936;-76
2022/01/16 00:48:35;;;;;;;;;;;2.60;99.90;;;;;;5053503;28;19928;-80
2022/01/16 00:51:00;;;;;;;;;;;1.70;99.90;;;;;;5053474;28;19974;-77
2022/01/16 00:53:26;;;;;;;;;;;2.50;99.90;;;;;;5052486;28;19921;-77
2022/01/16 00:55:52;;;;;;;;;;;2.50;99.90;;;;;;5053368;28;19921;-79
2022/01/16 00:58:17;;;;;;;;;;;2.50;99.90;;;;;;5053312;28;19927;-75
2022/01/16 01:00:43;;;;;;;;;;;2.40;99.90;;;;;;5053434;28;19928;-76
2022/01/16 01:03:09;;;;;;;;;;;4.20;99.90;;;;;;5053433;28;19928;-81
2022/01/16 01:05:34;;;;;;;;;;;2.30;99.90;;;;;;5052614;28;20264;-78
2022/01/16 01:08:01;;;;;;;;;;;3.40;99.90;;;;;;5053479;28;19920;-76
2022/01/16 01:10:31;;;;;;;;;;;2.20;99.90;;;;;;5053390;28;20016;-76
2022/01/16 01:13:08;;;;;;;;;;;2.00;99.90;;;;;;5053195;28;19920;-77
2022/01/16 01:15:42;;;;;;;;;;;3.80;99.90;;;;;;5053376;28;20368;-77
2022/01/16 01:18:08;;;;;;;;;;;2.70;99.90;;;;;;5053422;28;19920;-78
2022/01/16 01:20:34;;;;;;;;;;;1.80;99.90;;;;;;5053415;28;20015;-79
2022/01/16 01:22:59;;;;;;;;;;;2.10;99.90;;;;;;5053051;28;20011;-76
2022/01/16 01:25:25;;;;;;;;;;;2.50;99.90;;;;;;5052224;28;19963;-79
2022/01/16 01:27:50;;;;;;;;;;;2.10;99.90;;;;;;5054284;28;19925;-76
2022/01/16 01:30:20;;;;;;;;;;;2.10;99.90;;;;;;5057163;28;19920;-76
2022/01/16 01:32:47;;;;;;;;;;;2.10;99.90;;;;;;5057176;28;19920;-76
2022/01/16 01:35:14;;;;;;;;;;;3.60;99.90;;;;;;5057149;28;19994;-75
2022/01/16 01:37:40;;;;;;;;;;;1.10;99.90;;;;;;5057009;28;19928;-76
2022/01/16 01:40:07;;;;;;;;;;;4.00;99.90;;;;;;5056708;28;19932;-76
2022/01/16 01:42:43;;;;;;;;;;;2.10;99.90;;;;;;5056930;28;19978;-75
2022/01/16 01:53:46;;;;;;;;;;;1.90;99.90;;;;;;4917982;29;20383;-80
2022/01/16 01:56:13;;;;;;;;;;;3.00;99.90;;;;;;4918135;29;20413;-80
2022/01/16 01:58:39;;;;;;;;;;;3.60;99.90;;;;;;4918169;29;20034;-76
2022/01/16 02:01:05;;;;;;;;;;;1.90;99.90;;;;;;4917865;29;20026;-78
2022/01/16 02:06:03;;;;;;;;;;;1.80;99.90;;;;;;4917918;28;19934;-75
2022/01/16 02:08:28;;;;;;;;;;;1.80;99.90;;;;;;4917898;29;19923;-77
2022/01/16 02:10:56;;;;;;;;;;;3.40;99.90;;;;;;4918003;29;19978;-77
2022/01/16 02:13:29;;;;;;;;;;;1.70;99.90;;;;;;4917796;29;19923;-76
2022/01/16 02:32:28;;;;;;;;;;;3.40;99.90;;;;;;5055913;28;19920;-79
2022/01/16 02:34:48;;;;;;;;;;;1.70;99.90;;;;;;5055629;28;20015;-76
2022/01/16 02:37:16;;;;;;;;;;;3.10;99.90;;;;;;5056006;28;19978;-75
2022/01/16 02:39:45;;;;;;;;;;;3.60;99.90;;;;;;5055491;28;20019;-79
2022/01/16 02:42:12;;;;;;;;;;;2.90;99.90;;;;;;5054675;28;20061;-76
2022/01/16 02:44:46;;;;;;;;;;;3.40;99.90;;;;;;5055686;28;19921;-76
2022/01/16 02:47:13;;;;;;;;;;;1.50;99.90;;;;;;5055564;28;19921;-79
2022/01/16 02:49:44;;;;;;;;;;;1.50;99.90;;;;;;5055816;28;19920;-78
2022/01/16 02:52:11;;;;;;;;;;;2.40;99.90;;;;;;5054404;28;20410;-80
2022/01/16 02:54:39;;;;;;;;;;;2.70;99.90;;;;;;5055430;28;19974;-75
2022/01/16 02:57:05;;;;;;;;;;;2.30;99.90;;;;;;5054008;28;20007;-77
2022/01/16 02:59:31;;;;;;;;;;;1.50;99.90;;;;;;5055499;28;19924;-74
2022/01/16 03:01:56;;;;;;;;;;;1.50;99.90;;;;;;5053957;28;19966;-78
2022/01/16 03:04:22;;;;;;;;;;;3.80;99.90;;;;;;5054188;28;19925;-81
2022/01/16 03:06:47;;;;;;;;;;;2.80;99.90;;;;;;5055674;28;20019;-75
2022/01/16 03:09:13;;;;;;;;;;;1.20;99.90;;;;;;5054078;28;20326;-76
2022/01/16 03:11:45;;;;;;;;;;;1.50;99.90;;;;;;5055245;28;19920;-80
2022/01/16 03:14:12;;;;;;;;;;;3.10;99.90;;;;;;5055086;28;20387;-75
2022/01/16 03:16:41;;;;;;;;;;;1.50;99.90;;;;;;5054044;28;19925;-80
2022/01/16 03:21:54;;;;;;;;;;;1.50;99.90;;;;;;5053610;28;19920;-75
2022/01/16 03:24:24;;;;;;;;;;;2.00;99.90;;;;;;5053469;28;19920;-80
2022/01/16 03:26:51;;;;;;;;;;;1.50;99.90;;;;;;5054791;28;20380;-77
2022/01/16 03:29:17;;;;;;;;;;;3.00;99.90;;;;;;5053845;28;19920;-76
2022/01/16 03:31:43;;;;;;;;;;;3.20;99.90;;;;;;5053978;28;19951;-80
2022/01/16 03:34:08;;;;;;;;;;;2.50;99.90;;;;;;5054996;28;20011;-75
2022/01/16 03:36:34;;;;;;;;;;;3.50;99.90;;;;;;5054765;28;20307;-78
2022/01/16 03:38:59;;;;;;;;;;;1.50;99.90;;;;;;5054421;28;19921;-79
2022/01/16 03:41:27;;;;;;;;;;;2.60;99.90;;;;;;5054633;28;19927;-76
2022/01/16 03:43:54;;;;;;;;;;;2.90;99.90;;;;;;5054377;28;20399;-75
2022/01/16 03:46:20;;;;;;;;;;;1.50;99.90;;;;;;5054472;28;19940;-76
2022/01/16 03:48:45;;;;;;;;;;;1.70;99.90;;;;;;5054363;28;19921;-76
2022/01/16 03:51:11;;;;;;;;;;;2.70;99.90;;;;;;5052933;28;19931;-75
2022/01/16 03:53:36;;;;;;;;;;;1.50;99.90;;;;;;5053124;28;19927;-79
2022/01/16 03:56:02;;;;;;;;;;;1.40;99.90;;;;;;5054328;28;19921;-76
2022/01/16 03:58:27;;;;;;;;;;;1.60;99.90;;;;;;5054243;28;19927;-78
2022/01/16 04:00:53;;;;;;;;;;;2.00;99.90;;;;;;5054192;28;19927;-76
2022/01/16 04:03:18;;;;;;;;;;;3.20;99.90;;;;;;5053086;28;19971;-76
2022/01/16 04:05:44;;;;;;;;;;;1.40;99.90;;;;;;5054287;28;19968;-77
2022/01/16 04:08:10;;;;;;;;;;;1.50;99.90;;;;;;5054146;28;19975;-79
2022/01/16 04:10:35;;;;;;;;;;;1.50;99.90;;;;;;5053320;28;19929;-76
2022/01/16 04:13:03;;;;;;;;;;;1.50;99.90;;;;;;5054060;28;20304;-79
2022/01/16 04:15:31;;;;;;;;;;;1.40;99.90;;;;;;5069092;28;19964;-78
2022/01/16 04:17:57;;;;;;;;;;;1.50;99.90;;;;;;5052922;28;19932;-78
2022/01/16 04:20:23;;;;;;;;;;;2.80;99.90;;;;;;5053932;28;19925;-76
2022/01/16 04:22:48;;;;;;;;;;;2.70;99.90;;;;;;5053813;28;19920;-79
2022/01/16 04:25:14;;;;;;;;;;;1.50;99.90;;;;;;5053792;28;20295;-76
2022/01/16 04:27:40;;;;;;;;;;;1.50;99.90;;;;;;5053777;28;20081;-76
2022/01/16 04:30:06;;;;;;;;;;;1.50;99.90;;;;;;5053678;28;19920;-76
2022/01/16 04:32:32;;;;;;;;;;;1.50;99.90;;;;;;5053667;28;19925;-80
2022/01/16 04:34:57;;;;;;;;;;;1.50;99.90;;;;;;5053974;28;19921;-76
2022/01/16 04:37:23;;;;;;;;;;;1.60;99.90;;;;;;5053723;28;19928;-80
2022/01/16 04:39:51;;;;;;;;;;;2.30;99.90;;;;;;5053633;28;19927;-76
2022/01/16 04:45:09;;;;;;;;;;;2.90;99.90;;;;;;5045099;28;19928;-77
2022/01/16 04:47:35;;;;;;;;;;;1.60;99.90;;;;;;5053696;28;19921;-74
2022/01/16 04:50:00;;;;;;;;;;;3.20;99.90;;;;;;5053748;28;19920;-76
2022/01/16 04:52:26;;;;;;;;;;;2.50;99.90;;;;;;5053574;28;20322;-76
2022/01/16 04:54:51;;;;;;;;;;;1.40;99.90;;;;;;5053344;28;19963;-78
2022/01/16 04:57:17;;;;;;;;;;;1.60;99.90;;;;;;5053508;28;19921;-76
2022/01/16 04:59:43;;;;;;;;;;;3.50;99.90;;;;;;5053372;28;19928;-80
2022/01/16 05:02:08;;;;;;;;;;;2.10;99.90;;;;;;5055314;28;19921;-79
2022/01/16 05:04:34;;;;;;;;;;;3.10;99.90;;;;;;5057863;28;19925;-75
2022/01/16 05:06:59;;;;;;;;;;;1.70;99.90;;;;;;5056267;28;19920;-79
2022/01/16 05:09:25;;;;;;;;;;;3.40;99.90;;;;;;5056538;28;19922;-79
2022/01/16 05:11:55;;;;;;;;;;;3.50;99.90;;;;;;5056519;28;19951;-79
2022/01/16 05:17:05;;;;;;;;;;;1.80;99.90;;;;;;5056248;28;19928;-75
2022/01/16 05:19:30;;;;;;;;;;;3.60;99.90;;;;;;5057400;28;19920;-74
2022/01/16 05:21:56;;;;;;;;;;;2.70;99.90;;;;;;5057130;28;19920;-77
2022/01/16 05:24:24;;;;;;;;;;;2.00;99.90;;;;;;5057054;28;19921;-75
2022/01/16 05:26:49;;;;;;;;;;;3.30;99.90;;;;;;5057115;28;19928;-78
2022/01/16 05:29:15;;;;;;;;;;;2.00;99.90;;;;;;5057269;28;19925;-76
2022/01/16 05:31:44;;;;;;;;;;;2.10;99.90;;;;;;5055930;28;19927;-75
2022/01/16 05:34:11;;;;;;;;;;;2.70;99.90;;;;;;5057112;28;19924;-76
2022/01/16 05:36:36;;;;;;;;;;;2.10;99.90;;;;;;5057007;28;19999;-74
2022/01/16 05:39:02;;;;;;;;;;;2.10;99.90;;;;;;5057011;28;20427;-75
2022/01/16 05:41:27;;;;;;;;;;;2.30;99.90;;;;;;5056851;28;19943;-75
2022/01/16 05:43:53;;;;;;;;;;;2.10;99.90;;;;;;5056720;28;19972;-75
2022/01/16 05:46:19;;;;;;;;;;;3.00;99.90;;;;;;5057030;28;19920;-76
2022/01/16 05:48:44;;;;;;;;;;;2.20;99.90;;;;;;5057083;28;19956;-76
2022/01/16 05:51:10;;;;;;;;;;;3.60;99.90;;;;;;5072211;28;20442;-81
2022/01/16 05:53:37;;;;;;;;;;;3.00;99.90;;;;;;5056659;28;19921;-75
2022/01/16 05:56:02;;;;;;;;;;;4.10;99.90;;;;;;5056611;28;19931;-75
2022/01/16 05:58:28;;;;;;;;;;;2.30;99.90;;;;;;5056464;28;20393;-75
2022/01/16 06:00:53;;;;;;;;;;;2.60;99.90;;;;;;5056701;28;19924;-76
2022/01/16 06:03:21;;;;;;;;;;;2.30;99.90;;;;;;5055277;28;19974;-76
2022/01/16 06:05:47;;;;;;;;;;;3.70;99.90;;;;;;5056490;28;19928;-78
2022/01/16 06:08:13;;;;;;;;;;;2.30;99.90;;;;;;5056302;28;19924;-77
2022/01/16 06:10:39;;;;;;;;;;;2.40;99.90;;;;;;5056507;28;19928;-79
2022/01/16 06:13:05;;;;;;;;;;;2.40;99.90;;;;;;5055633;28;19928;-75
2022/01/16 06:15:31;;;;;;;;;;;0.60;99.90;;;;;;5056168;28;20007;-75
2022/01/16 06:17:57;;;;;;;;;;;3.50;99.90;;;;;;5056577;28;19999;-75
2022/01/16 06:20:22;;;;;;;;;;;2.60;99.90;;;;;;5055031;28;19925;-82
2022/01/16 06:22:48;;;;;;;;;;;2.50;99.90;;;;;;5056105;28;19964;-76
2022/01/16 06:25:14;;;;;;;;;;;2.40;99.90;;;;;;5056127;28;19935;-76
2022/01/16 06:27:39;;;;;;;;;;;2.50;99.90;;;;;;5038459;28;19921;-79
2022/01/16 06:30:06;;;;;;;;;;;4.10;99.90;;;;;;5054753;28;19967;-75
2022/01/16 06:32:32;;;;;;;;;;;2.50;99.90;;;;;;5054882;28;20351;-75
2022/01/16 06:34:57;;;;;;;;;;;2.90;99.90;;;;;;5056094;28;19982;-78
2022/01/16 06:37:23;;;;;;;;;;;2.50;99.90;;;;;;5055803;28;19921;-80
2022/01/16 06:39:48;;;;;;;;;;;3.60;99.90;;;;;;5055602;28;19972;-75
2022/01/16 06:42:14;;;;;;;;;;;2.90;99.90;;;;;;5055724;28;19920;-76
2022/01/16 06:44:40;;;;;;;;;;;3.90;99.90;;;;;;5055591;28;19921;-79
2022/01/16 06:47:05;;;;;;;;;;;2.50;99.90;;;;;;5054756;28;19925;-75
2022/01/16 06:49:31;;;;;;;;;;;2.60;99.90;;;;;;5055736;28;19966;-75
2022/01/16 06:51:56;;;;;;;;;;;2.60;99.90;;;;;;5054659;28;19921;-74
2022/01/16 06:54:22;;;;;;;;;;;2.60;99.90;;;;;;5055595;28;19924;-80
2022/01/16 06:56:47;;;;;;;;;;;4.00;99.90;;;;;;5054679;28;19928;-75
2022/01/16 06:59:13;;;;;;;;;;;2.60;99.90;;;;;;5055584;28;19921;-75
2022/01/16 07:01:38;;;;;;;;;;;2.40;99.90;;;;;;5054392;28;20257;-80
2022/01/16 07:04:04;;;;;;;;;;;3.70;99.90;;;;;;5055304;28;19920;-75
2022/01/16 07:06:29;;;;;;;;;;;3.40;99.90;;;;;;5055317;28;19963;-76
2022/01/16 07:08:55;;;;;;;;;;;1.30;99.90;;;;;;5055176;28;19921;-77
2022/01/16 07:11:21;;;;;;;;;;;3.30;99.90;;;;;;5054077;28;19921;-76
2022/01/16 07:13:46;;;;;;;;;;;4.30;99.90;;;;;;5070641;28;19927;-81
2022/01/16 07:16:12;;;;;;;;;;;3.20;99.90;;;;;;5054145;28;20022;-77
2022/01/16 07:18:37;;;;;;;;;;;4.70;99.90;;;;;;5055176;28;19928;-78
2022/01/16 07:21:05;;;;;;;;;;;4.00;99.90;;;;;;5054922;28;19928;-77
2022/01/16 07:23:30;;;;;;;;;;;2.70;99.90;;;;;;5054814;28;19928;-75
2022/01/16 07:25:56;;;;;;;;;;;4.30;99.90;;;;;;5053959;28;19921;-80
2022/01/16 07:28:22;;;;;;;;;;;2.80;99.90;;;;;;5054807;28;20423;-76
2022/01/16 07:30:48;;;;;;;;;;;3.00;99.90;;;;;;5054772;28;20418;-81
2022/01/16 07:33:13;;;;;;;;;;;3.80;99.90;;;;;;5054932;28;19927;-78
2022/01/16 07:35:39;;;;;;;;;;;4.20;99.90;;;;;;5054823;28;19920;-75
2022/01/16 07:38:06;;;;;;;;;;;2.80;99.90;;;;;;5053742;28;19927;-75
2022/01/16 07:40:31;;;;;;;;;;;2.80;99.90;;;;;;5054688;28;19921;-77
2022/01/16 07:42:59;;;;;;;;;;;2.50;99.90;;;;;;5054548;28;20259;-76
2022/01/16 07:45:25;;;;;;;;;;;3.40;99.90;;;;;;5053523;28;20419;-76
2022/01/16 07:47:50;;;;;;;;;;;2.90;99.90;;;;;;5054364;28;20028;-76
2022/01/16 07:50:16;;;;;;;;;;;3.80;99.90;;;;;;5053525;28;20019;-76
2022/01/16 07:52:42;;;;;;;;;;;2.90;99.90;;;;;;5053236;28;20291;-76
2022/01/16 07:55:08;;;;;;;;;;;3.70;99.90;;;;;;5053372;28;19924;-76
2022/01/16 07:57:33;;;;;;;;;;;3.00;99.90;;;;;;5052220;28;19956;-77
2022/01/16 07:59:59;;;;;;;;;;;4.80;99.90;;;;;;5054061;28;19963;-76
2022/01/16 08:02:24;;;;;;;;;;;3.80;99.90;;;;;;5053868;28;19928;-75
2022/01/16 08:04:50;;;;;;;;;;;4.00;99.90;;;;;;5052631;28;19921;-76
2022/01/16 08:07:16;;;;;;;;;;;4.10;99.90;;;;;;5053014;28;20283;-76
2022/01/16 08:09:42;;;;;;;;;;;4.70;99.90;;;;;;5054096;28;19920;-79
2022/01/16 08:12:08;;;;;;;;;;;3.50;99.90;;;;;;5053985;28;19921;-77
2022/01/16 08:14:34;;;;;;;;;;;3.10;99.90;;;;;;5053929;28;19974;-76
2022/01/16 08:17:00;;;;;;;;;;;3.10;99.90;;;;;;5053854;28;19921;-76
2022/01/16 08:19:26;;;;;;;;;;;4.80;99.90;;;;;;5053811;28;19921;-81
2022/01/16 08:21:52;;;;;;;;;;;3.20;99.90;;;;;;5054039;28;19925;-79
2022/01/16 08:24:18;;;;;;;;;;;3.80;99.90;;;;;;5053728;28;19921;-79
2022/01/16 08:26:43;;;;;;;;;;;3.20;99.90;;;;;;5053788;28;19927;-76
2022/01/16 08:29:09;;;;;;;;;;;4.70;99.90;;;;;;5053875;28;20269;-79
2022/01/16 08:31:35;;;;;;;;;;;4.60;99.90;;;;;;5052475;28;19920;-74
2022/01/16 08:34:00;;;;;;;;;;;4.80;99.90;;;;;;5053548;28;20016;-77
2022/01/16 08:36:26;;;;;;;;;;;3.30;99.90;;;;;;5053234;28;20296;-76
2022/01/16 08:38:53;;;;;;;;;;;3.30;99.90;;;;;;5053669;28;19920;-76
2022/01/16 08:41:19;;;;;;;;;;;4.90;99.90;;;;;;5053728;28;20439;-75
2022/01/16 08:43:44;;;;;;;;;;;4.50;99.90;;;;;;5053689;28;19979;-76
2022/01/16 08:46:11;;;;;;;;;;;3.40;99.90;;;;;;5053472;28;19921;-75
2022/01/16 08:48:37;;;;;;;;;;;4.70;99.90;;;;;;5053509;28;20359;-76
2022/01/16 08:51:03;;;;;;;;;;;3.40;99.90;;;;;;5069224;28;19972;-75
2022/01/16 08:53:28;;;;;;;;;;;5.00;99.90;;;;;;5048825;28;19920;-76
2022/01/16 08:55:54;;;;;;;;;;;3.90;99.90;;;;;;5053275;28;20283;-75
2022/01/16 08:58:19;;;;;;;;;;;3.50;99.90;;;;;;5053145;28;19921;-78
2022/01/16 09:00:47;;;;;;;;;;;3.60;99.90;;;;;;5053566;28;19920;-75
2022/01/16 09:03:13;;;;;;;;;;;5.20;99.90;;;;;;5053266;28;19931;-81
2022/01/16 09:05:38;;;;;;;;;;;3.60;99.90;;;;;;5053866;28;19975;-78
2022/01/16 09:08:22;;;;;;;;;;;3.40;99.90;;;;;;5053368;28;19924;-80
2022/01/16 09:10:48;;;;;;;;;;;3.60;99.90;;;;;;5053381;28;19964;-75
2022/01/16 09:13:15;;;;;;;;;;;5.30;99.90;;;;;;5052450;28;19967;-75
2022/01/16 09:15:45;;;;;;;;;;;4.30;99.90;;;;;;5053231;28;20015;-73
2022/01/16 09:18:11;;;;;;;;;;;4.40;99.90;;;;;;5053236;28;19975;-78
2022/01/16 09:20:37;;;;;;;;;;;4.50;99.90;;;;;;5053039;28;20333;-75
2022/01/16 09:23:03;;;;;;;;;;;3.90;99.90;;;;;;5053195;28;20379;-75
2022/01/16 09:25:28;;;;;;;;;;;3.80;99.90;;;;;;5053207;28;19975;-76
2022/01/16 09:27:54;;;;;;;;;;;3.90;99.90;;;;;;5053142;28;20395;-77
2022/01/16 09:30:20;;;;;;;;;;;5.20;99.90;;;;;;5053074;28;19994;-75
2022/01/16 09:32:46;;;;;;;;;;;4.40;99.90;;;;;;5052739;28;19928;-76
2022/01/16 09:35:11;;;;;;;;;;;5.50;99.90;;;;;;5053007;28;19924;-75
2022/01/16 09:37:37;;;;;;;;;;;4.70;99.90;;;;;;5052238;28;19928;-74
2022/01/16 09:40:03;;;;;;;;;;;4.10;99.90;;;;;;5053075;28;19928;-75
2022/01/16 09:42:29;;;;;;;;;;;4.20;99.90;;;;;;5053029;28;19924;-79
2022/01/16 09:44:55;;;;;;;;;;;4.20;99.90;;;;;;5051996;28;20280;-78
2022/01/16 09:47:20;;;;;;;;;;;4.30;99.90;;;;;;5052919;28;19921;-78
2022/01/16 09:49:46;;;;;;;;;;;4.30;99.90;;;;;;5054824;28;19928;-75
2022/01/16 09:52:12;;;;;;;;;;;4.40;99.90;;;;;;5055839;28;19968;-77
2022/01/16 09:54:38;;;;;;;;;;;4.40;99.90;;;;;;5055823;28;20379;-76
2022/01/16 09:57:04;;;;;;;;;;;4.90;99.90;;;;;;5056532;28;19964;-78
2022/01/16 09:59:30;;;;;;;;;;;4.60;99.90;;;;;;5056532;28;20433;-76
2022/01/16 10:01:56;;;;;;;;;;;4.60;99.90;;;;;;5056686;28;20344;-75
2022/01/16 10:04:28;;;;;;;;;;;5.30;99.90;;;;;;5056360;28;19939;-74
2022/01/16 10:06:57;;;;;;;;;;;5.00;99.90;;;;;;5055406;28;19921;-79
2022/01/16 10:09:23;;;;;;;;;;;4.80;99.90;;;;;;5056284;28;19974;-76
2022/01/16 10:11:59;;;;;;;;;;;4.90;99.90;;;;;;5056320;28;20275;-76
2022/01/16 10:14:29;;;;;;;;;;;4.90;99.90;;;;;;5056165;28;19920;-75
2022/01/16 10:16:55;;;;;;;;;;;5.00;99.90;;;;;;5056088;28;20413;-78
2022/01/16 10:19:28;;;;;;;;;;;5.00;99.90;;;;;;5056243;28;20003;-81
2022/01/16 10:22:00;;;;;;;;;;;5.00;99.90;;;;;;5056102;28;20348;-77
2022/01/16 10:24:29;;;;;;;;;;;5.90;99.90;;;;;;5054984;28;19928;-76
2022/01/16 10:27:07;;;;;;;;;;;5.30;99.90;;;;;;5055862;28;19921;-75
2022/01/16 10:29:34;;;;;;;;;;;5.10;99.90;;;;;;5055835;28;19924;-75
2022/01/16 10:32:10;;;;;;;;;;;5.10;99.90;;;;;;5056194;28;19924;-75
2022/01/16 10:34:35;;;;;;;;;;;5.10;99.90;;;;;;5055888;28;20390;-76
2022/01/16 10:37:16;;;;;;;;;;;5.20;99.90;;;;;;5055711;28;19920;-75
2022/01/16 10:39:58;;;;;;;;;;;5.10;99.90;;;;;;5054116;28;19924;-78
2022/01/16 10:42:24;;;;;;;;;;;5.10;99.90;;;;;;5055507;28;19924;-75
2022/01/16 10:44:59;;;;;;;;;;;5.20;99.90;;;;;;5055634;28;20416;-76
2022/01/16 10:47:44;;;;;;;;;;;5.20;99.90;;;;;;5055571;28;19928;-77
2022/01/16 10:50:12;;;;;;;;;;;5.20;99.90;;;;;;5055333;28;20350;-80
2022/01/16 10:52:58;;;;;;;;;;;5.20;99.90;;;;;;5054047;28;20311;-79
2022/01/16 10:55:33;;;;;;;;;;;5.20;99.90;;;;;;5053536;28;19920;-74
2022/01/16 10:58:01;;;;;;;;;;;5.20;99.90;;;;;;5054355;28;20007;-76
2022/01/16 11:00:27;;;;;;;;;;;5.20;99.90;;;;;;5055204;28;20015;-78
2022/01/16 11:02:54;;;;;;;;;;;5.20;99.90;;;;;;5053915;28;19925;-76
2022/01/16 11:05:22;;;;;;;;;;;5.20;99.90;;;;;;5037602;28;19931;-76
2022/01/16 11:07:58;;;;;;;;;;;5.30;99.90;;;;;;5054286;28;19921;-75
2022/01/16 11:10:26;;;;;;;;;;;5.30;99.90;;;;;;5054077;28;19921;-78
2022/01/16 11:12:54;;;;;;;;;;;5.30;99.90;;;;;;5054103;28;20257;-76
2022/01/16 11:15:20;;;;;;;;;;;5.40;99.90;;;;;;5054892;28;19921;-74
2022/01/16 11:17:46;;;;;;;;;;;5.40;99.90;;;;;;5054663;28;19921;-76
2022/01/16 11:20:13;;;;;;;;;;;5.40;99.90;;;;;;5053740;28;19931;-76
2022/01/16 11:25:31;;;;;;;;;;;5.40;99.90;;;;;;5054636;28;19931;-75
2022/01/16 11:28:17;;;;;;;;;;;6.40;99.90;;;;;;5054619;28;19932;-74
2022/01/16 11:30:49;;;;;;;;;;;6.80;99.90;;;;;;5054398;28;19921;-76
2022/01/16 11:33:16;;;;;;;;;;;5.50;99.90;;;;;;5054724;28;20011;-80
2022/01/16 11:35:45;;;;;;;;;;;5.60;99.90;;;;;;5053606;28;19921;-75
2022/01/16 11:38:11;;;;;;;;;;;5.60;99.90;;;;;;5053668;28;19943;-78
2022/01/16 11:40:47;;;;;;;;;;;5.70;99.90;;;;;;5069663;28;19925;-75
2022/01/16 11:43:14;;;;;;;;;;;5.70;99.90;;;;;;5086957;28;19928;-75
2022/01/16 11:46:15;;;;;;;;;;;5.70;99.90;;;;;;5054444;28;20368;-77
2022/01/16 11:48:53;;;;;;;;;;;5.80;99.90;;;;;;5032189;28;19921;-76
2022/01/16 11:51:35;;;;;;;;;;;5.80;99.90;;;;;;5032120;28;19928;-79
2022/01/16 11:54:13;;;;;;;;;;;5.80;99.90;;;;;;5032035;28;20366;-76
2022/01/16 11:56:39;;;;;;;;;;;5.90;99.90;;;;;;5031862;28;19971;-78
2022/01/16 11:59:11;;;;;;;;;;;5.90;99.90;;;;;;5031913;28;20491;-75
2022/01/16 12:01:47;;;;;;;;;;;5.90;99.90;;;;;;5015531;28;19921;-75
2022/01/16 12:04:30;;;;;;;;;;;5.90;99.90;;;;;;5031946;28;19927;-76
2022/01/16 12:07:15;;;;;;;;;;;6.00;99.90;;;;;;5031816;28;19921;-76
2022/01/16 12:12:13;;;;;;;;;;;6.00;99.90;;;;;;5031251;28;19921;-75
2022/01/16 12:14:52;;;;;;;;;;;6.00;99.90;;;;;;5031758;28;19975;-79
2022/01/16 12:17:31;;;;;;;;;;;6.00;99.90;;;;;;5031627;28;19944;-76
2022/01/16 12:20:20;;;;;;;;;;;6.10;99.90;;;;;;5031619;28;19921;-80
2022/01/16 12:23:05;;;;;;;;;;;6.10;99.90;;;;;;5033912;28;19921;-76
2022/01/16 12:25:31;;;;;;;;;;;6.10;99.90;;;;;;5053647;28;19920;-75
2022/01/16 12:28:09;;;;;;;;;;;6.10;99.90;;;;;;5053648;28;20058;-80
2022/01/16 12:30:51;;;;;;;;;;;6.10;99.90;;;;;;5053562;28;19921;-76
2022/01/16 12:33:23;;;;;;;;;;;6.10;99.90;;;;;;5053513;28;19944;-76
2022/01/16 12:35:51;;;;;;;;;;;6.10;99.90;;;;;;5052729;28;20443;-79
2022/01/16 12:38:26;;;;;;;;;;;6.10;99.90;;;;;;5052349;28;19927;-77
2022/01/16 12:40:58;;;;;;;;;;;6.10;99.90;;;;;;5052456;28;19967;-78
2022/01/16 12:43:32;;;;;;;;;;;6.10;99.90;;;;;;5052273;28;19924;-76
2022/01/16 12:45:59;;;;;;;;;;;6.10;99.90;;;;;;5052101;28;19921;-75
2022/01/16 12:48:24;;;;;;;;;;;6.90;99.90;;;;;;5069321;28;19973;-77
2022/01/16 12:50:58;;;;;;;;;;;6.10;99.90;;;;;;5053576;28;20007;-75
2022/01/16 12:53:53;;;;;;;;;;;6.10;99.90;;;;;;5053323;28;19920;-76
2022/01/16 12:56:22;;;;;;;;;;;6.10;99.90;;;;;;5032053;28;20292;-77
2022/01/16 12:58:48;;;;;;;;;;;6.10;99.90;;;;;;5047712;28;19921;-75
2022/01/16 13:01:14;;;;;;;;;;;6.10;99.90;;;;;;5046957;28;20011;-76
2022/01/16 13:03:43;;;;;;;;;;;6.10;99.90;;;;;;5026146;28;19921;-76
2022/01/16 13:06:16;;;;;;;;;;;6.10;99.90;;;;;;5035877;28;20463;-78
2022/01/16 13:08:52;;;;;;;;;;;6.10;99.90;;;;;;5051055;28;19928;-76
2022/01/16 13:11:18;;;;;;;;;;;6.10;99.90;;;;;;5051073;28;19974;-75
2022/01/16 13:13:44;;;;;;;;;;;6.10;99.90;;;;;;5034727;28;19920;-75
2022/01/16 13:16:25;;;;;;;;;;;6.10;99.90;;;;;;5051099;28;19920;-75
2022/01/16 13:19:03;;;;;;;;;;;6.10;99.90;;;;;;5051051;28;20368;-76
2022/01/16 13:21:39;;;;;;;;;;;6.20;99.90;;;;;;5050784;28;19921;-76
2022/01/16 13:24:05;;;;;;;;;;;6.20;99.90;;;;;;5052897;28;19920;-76
2022/01/16 13:26:32;;;;;;;;;;;6.20;99.90;;;;;;5054256;28;19927;-76
2022/01/16 13:28:59;;;;;;;;;;;6.20;99.90;;;;;;5054959;28;20020;-77
2022/01/16 13:31:25;;;;;;;;;;;6.50;99.90;;;;;;5054638;28;20406;-75
2022/01/16 13:34:07;;;;;;;;;;;6.20;99.90;;;;;;5037299;28;19924;-75
2022/01/16 13:36:33;;;;;;;;;;;6.20;99.90;;;;;;5036901;28;20031;-75
2022/01/16 13:38:59;;;;;;;;;;;6.30;99.90;;;;;;5037150;28;20474;-79
2022/01/16 13:41:25;;;;;;;;;;;6.20;99.90;;;;;;5036951;28;19921;-77
2022/01/16 13:43:51;;;;;;;;;;;6.20;99.90;;;;;;5036859;28;20012;-75
2022/01/16 13:46:17;;;;;;;;;;;6.20;99.90;;;;;;5036875;28;19920;-76
2022/01/16 13:48:43;;;;;;;;;;;6.20;99.90;;;;;;5035583;28;20403;-75
2022/01/16 13:51:09;;;;;;;;;;;6.20;99.90;;;;;;5036603;28;19968;-74
2022/01/16 13:53:38;;;;;;;;;;;6.20;99.90;;;;;;5019338;28;19972;-75
2022/01/16 13:56:08;;;;;;;;;;;6.30;99.90;;;;;;5036227;28;19924;-80
2022/01/16 13:58:44;;;;;;;;;;;6.30;99.90;;;;;;5069069;28;19925;-74
2022/01/16 14:01:12;;;;;;;;;;;6.30;99.90;;;;;;5036791;28;19925;-77
2022/01/16 14:03:46;;;;;;;;;;;6.30;99.90;;;;;;5036406;28;19974;-77
2022/01/16 14:06:16;;;;;;;;;;;6.30;99.90;;;;;;5068560;28;20384;-75
2022/01/16 14:08:52;;;;;;;;;;;6.30;99.90;;;;;;5036488;28;19967;-75
2022/01/16 14:11:20;;;;;;;;;;;6.30;99.90;;;;;;5036269;28;19921;-76
2022/01/16 14:13:59;;;;;;;;;;;6.30;99.90;;;;;;5036310;28;19921;-78
2022/01/16 14:16:33;;;;;;;;;;;6.30;99.90;;;;;;5068544;28;19921;-75
2022/01/16 14:24:06;;;;;;;;;;;6.30;99.90;;;;;;5036131;28;20008;-77
2022/01/16 14:26:32;;;;;;;;;;;6.30;99.90;;;;;;5035498;28;19920;-75
2022/01/16 14:28:58;;;;;;;;;;;6.30;99.90;;;;;;5068049;28;20331;-75
2022/01/16 14:31:25;;;;;;;;;;;6.30;99.90;;;;;;5035999;28;20478;-76
2022/01/16 14:33:51;;;;;;;;;;;6.30;99.90;;;;;;5035593;28;20011;-79
2022/01/16 14:36:17;;;;;;;;;;;6.30;99.90;;;;;;5068310;28;19928;-75
2022/01/16 14:38:44;;;;;;;;;;;6.30;99.90;;;;;;5034612;28;20024;-77
2022/01/16 14:41:12;;;;;;;;;;;6.30;99.90;;;;;;5068017;28;19943;-75
2022/01/16 14:43:54;;;;;;;;;;;6.30;99.90;;;;;;5035733;28;19925;-76
2022/01/16 14:46:24;;;;;;;;;;;6.40;99.90;;;;;;5068373;28;19974;-80
2022/01/16 14:48:51;;;;;;;;;;;6.40;99.90;;;;;;5035767;28;19928;-76
2022/01/16 14:51:17;;;;;;;;;;;6.40;99.90;;;;;;5067972;28;20331;-77
2022/01/16 14:53:44;;;;;;;;;;;6.40;99.90;;;;;;5035468;28;20403;-80
2022/01/16 14:56:11;;;;;;;;;;;6.40;99.90;;;;;;5034791;28;19921;-77
2022/01/16 14:58:38;;;;;;;;;;;6.40;99.90;;;;;;5067535;28;20328;-74
2022/01/16 15:01:05;;;;;;;;;;;6.50;99.90;;;;;;5035404;28;19921;-75
2022/01/16 15:03:31;;;;;;;;;;;6.40;99.90;;;;;;5035525;28;19921;-76
2022/01/16 15:05:58;;;;;;;;;;;6.50;99.90;;;;;;5035670;28;20357;-76
2022/01/16 15:08:25;;;;;;;;;;;6.40;99.90;;;;;;5035258;28;19925;-75
2022/01/16 15:10:53;;;;;;;;;;;6.40;99.90;;;;;;5034824;28;19931;-77
2022/01/16 15:13:19;;;;;;;;;;;6.40;99.90;;;;;;5035282;28;20420;-75
2022/01/16 15:15:45;;;;;;;;;;;6.30;99.90;;;;;;5042658;28;19927;-80
2022/01/16 15:18:12;;;;;;;;;;;6.60;99.90;;;;;;5053916;28;20303;-76
2022/01/16 15:20:40;;;;;;;;;;;6.30;99.90;;;;;;5054703;28;19920;-75
2022/01/16 15:23:07;;;;;;;;;;;6.20;99.90;;;;;;5054822;28;20376;-76
2022/01/16 15:25:34;;;;;;;;;;;6.20;99.90;;;;;;5054379;28;20023;-76